createdAt,value
2018-07-24T00:00:55.922Z,0.00
2018-07-24T00:01:56.101Z,0.00
2018-07-24T00:02:56.308Z,0.00
2018-07-24T00:03:56.470Z,0.00
2018-07-24T00:04:56.656Z,0.00
2018-07-24T00:05:56.836Z,0.00
2018-07-24T00:06:57.009Z,0.00
2018-07-24T00:07:57.193Z,0.00
2018-07-24T00:08:57.381Z,0.00
2018-07-24T00:09:57.567Z,0.00
2018-07-24T00:10:57.785Z,0.00
2018-07-24T00:11:57.931Z,0.00
2018-07-24T00:12:58.125Z,0.00
2018-07-24T00:13:58.319Z,0.00
2018-07-24T00:14:58.503Z,0.00
2018-07-24T00:15:58.676Z,0.00
2018-07-24T00:16:58.870Z,0.00
2018-07-24T00:17:59.068Z,0.00
2018-07-24T00:18:59.254Z,0.00
2018-07-24T00:19:59.441Z,0.00
2018-07-24T00:20:59.628Z,0.00
2018-07-24T00:21:59.795Z,0.00
2018-07-24T00:22:59.982Z,0.00
2018-07-24T00:24:00.156Z,0.00
2018-07-24T00:25:00.379Z,0.00
2018-07-24T00:26:00.538Z,0.00
2018-07-24T00:27:00.726Z,0.00
2018-07-24T00:28:00.913Z,0.00
2018-07-24T00:29:01.100Z,0.00
2018-07-24T00:30:01.285Z,0.00
2018-07-24T00:31:01.479Z,0.00
2018-07-24T00:32:01.680Z,0.00
2018-07-24T00:33:01.858Z,0.00
2018-07-24T00:34:02.051Z,0.00
2018-07-24T00:35:02.241Z,0.00
2018-07-24T00:36:02.426Z,0.00
2018-07-24T00:37:02.613Z,0.00
2018-07-24T00:38:02.797Z,0.00
2018-07-24T00:39:02.984Z,0.00
2018-07-24T00:40:03.176Z,0.00
2018-07-24T00:41:03.373Z,0.00
2018-07-24T00:42:03.525Z,0.00
2018-07-24T00:43:03.713Z,0.00
2018-07-24T00:44:03.898Z,0.00
2018-07-24T00:45:04.086Z,0.00
2018-07-24T00:46:04.278Z,0.00
2018-07-24T00:47:04.465Z,0.00
2018-07-24T00:48:04.647Z,0.00
2018-07-24T00:49:04.813Z,0.00
2018-07-24T00:50:05.020Z,0.00
2018-07-24T00:51:05.227Z,0.00
2018-07-24T00:52:05.378Z,0.00
2018-07-24T00:53:05.573Z,0.00
2018-07-24T00:54:05.788Z,0.00
2018-07-24T00:55:05.940Z,0.00
2018-07-24T00:56:06.113Z,0.00
2018-07-24T00:57:06.293Z,0.00
2018-07-24T00:58:06.481Z,0.00
2018-07-24T00:59:06.672Z,0.00
2018-07-24T01:00:06.859Z,0.00
2018-07-24T01:01:07.038Z,0.00
2018-07-24T01:02:07.249Z,0.00
2018-07-24T01:03:07.406Z,0.00
2018-07-24T01:04:07.592Z,0.00
2018-07-24T01:05:07.776Z,0.00
2018-07-24T01:06:07.960Z,0.00
2018-07-24T01:07:08.150Z,0.00
2018-07-24T01:08:08.332Z,0.00
2018-07-24T01:09:08.516Z,0.00
2018-07-24T01:10:08.696Z,0.00
2018-07-24T01:11:08.904Z,0.00
2018-07-24T01:12:09.084Z,0.00
2018-07-24T01:13:09.281Z,0.00
2018-07-24T01:14:09.467Z,0.00
2018-07-24T01:15:09.651Z,0.00
2018-07-24T01:16:09.830Z,0.00
2018-07-24T01:17:10.011Z,0.00
2018-07-24T01:18:10.203Z,0.00
2018-07-24T01:19:10.388Z,0.00
2018-07-24T01:20:10.574Z,0.00
2018-07-24T01:21:10.786Z,0.00
2018-07-24T01:22:10.996Z,0.00
2018-07-24T01:23:11.179Z,0.00
2018-07-24T01:24:11.362Z,0.00
2018-07-24T01:25:11.549Z,0.00
2018-07-24T01:26:11.725Z,0.00
2018-07-24T01:27:11.933Z,0.00
2018-07-24T01:28:12.107Z,0.00
2018-07-24T01:29:12.294Z,0.00
2018-07-24T01:30:12.478Z,0.00
2018-07-24T01:31:12.665Z,0.00
2018-07-24T01:32:12.854Z,0.00
2018-07-24T01:33:13.036Z,0.00
2018-07-24T01:34:13.224Z,0.00
2018-07-24T01:35:13.418Z,0.00
2018-07-24T01:36:13.616Z,0.00
2018-07-24T01:37:13.775Z,0.00
2018-07-24T01:38:13.962Z,0.00
2018-07-24T01:39:14.147Z,0.00
2018-07-24T01:40:14.341Z,0.00
2018-07-24T01:41:14.531Z,0.00
2018-07-24T01:42:14.732Z,0.00
2018-07-24T01:43:14.875Z,0.00
2018-07-24T01:44:15.062Z,0.00
2018-07-24T01:45:15.249Z,0.00
2018-07-24T01:46:15.437Z,0.00
2018-07-24T01:47:15.626Z,0.00
2018-07-24T01:48:15.809Z,0.00
2018-07-24T01:49:16.011Z,0.00
2018-07-24T01:50:16.188Z,0.00
2018-07-24T01:51:16.386Z,0.00
2018-07-24T01:52:16.550Z,0.00
2018-07-24T01:53:16.736Z,0.00
2018-07-24T01:54:16.921Z,0.00
2018-07-24T01:55:17.108Z,0.00
2018-07-24T01:56:17.295Z,0.00
2018-07-24T01:57:17.477Z,0.00
2018-07-24T01:58:17.712Z,0.00
2018-07-24T01:59:17.919Z,0.00
2018-07-24T02:00:18.095Z,0.00
2018-07-24T02:01:18.283Z,0.00
2018-07-24T02:02:18.469Z,0.00
2018-07-24T02:03:18.649Z,0.00
2018-07-24T02:04:18.835Z,0.00
2018-07-24T02:05:19.019Z,0.00
2018-07-24T02:06:19.222Z,0.00
2018-07-24T02:07:19.385Z,0.00
2018-07-24T02:08:19.573Z,0.00
2018-07-24T02:09:19.753Z,0.00
2018-07-24T02:10:19.938Z,0.00
2018-07-24T02:11:20.126Z,0.00
2018-07-24T02:12:20.309Z,0.00
2018-07-24T02:13:20.491Z,0.00
2018-07-24T02:14:20.687Z,0.00
2018-07-24T02:15:20.849Z,0.00
2018-07-24T02:16:21.040Z,0.00
2018-07-24T02:17:21.225Z,0.00
2018-07-24T02:18:21.408Z,0.00
2018-07-24T02:19:21.598Z,0.00
2018-07-24T02:20:21.800Z,0.00
2018-07-24T02:21:21.960Z,0.00
2018-07-24T02:22:22.143Z,0.00
2018-07-24T02:23:22.341Z,0.00
2018-07-24T02:24:22.518Z,0.00
2018-07-24T02:25:22.701Z,0.00
2018-07-24T02:26:22.878Z,0.00
2018-07-24T02:27:23.075Z,0.00
2018-07-24T02:28:23.259Z,0.00
2018-07-24T02:29:23.443Z,0.00
2018-07-24T02:30:23.632Z,0.00
2018-07-24T02:31:23.818Z,0.00
2018-07-24T02:32:24.020Z,0.00
2018-07-24T02:33:24.189Z,0.00
2018-07-24T02:34:24.372Z,0.00
2018-07-24T02:35:24.559Z,0.00
2018-07-24T02:36:24.746Z,0.00
2018-07-24T02:37:24.940Z,0.00
2018-07-24T02:38:25.116Z,0.00
2018-07-24T02:39:25.315Z,0.00
2018-07-24T02:40:25.500Z,0.00
2018-07-24T02:41:25.683Z,0.00
2018-07-24T02:42:25.871Z,0.00
2018-07-24T02:43:26.060Z,0.00
2018-07-24T02:44:26.247Z,0.00
2018-07-24T02:45:26.444Z,0.00
2018-07-24T02:46:26.609Z,0.00
2018-07-24T02:47:26.790Z,0.00
2018-07-24T02:48:26.979Z,0.00
2018-07-24T02:49:27.168Z,0.00
2018-07-24T02:50:27.350Z,4.00
2018-07-24T02:51:27.569Z,4.00
2018-07-24T02:52:27.726Z,0.00
2018-07-24T02:53:27.915Z,0.00
2018-07-24T02:54:28.099Z,4.00
2018-07-24T02:55:28.288Z,4.00
2018-07-24T02:56:28.473Z,0.00
2018-07-24T02:57:28.651Z,4.00
2018-07-24T02:58:28.852Z,4.00
2018-07-24T02:59:29.035Z,4.00
2018-07-24T03:00:29.220Z,4.00
2018-07-24T03:01:29.391Z,4.00
2018-07-24T03:02:29.567Z,4.00
2018-07-24T03:03:29.767Z,8.00
2018-07-24T03:04:29.960Z,8.00
2018-07-24T03:05:30.133Z,12.00
2018-07-24T03:06:30.333Z,8.00
2018-07-24T03:07:30.542Z,16.00
2018-07-24T03:08:30.724Z,16.00
2018-07-24T03:09:30.909Z,16.00
2018-07-24T03:10:31.122Z,20.00
2018-07-24T03:11:31.286Z,24.00
2018-07-24T03:12:31.481Z,24.00
2018-07-24T03:13:31.664Z,32.00
2018-07-24T03:14:31.837Z,36.00
2018-07-24T03:15:32.015Z,40.00
2018-07-24T03:16:32.220Z,40.00
2018-07-24T03:17:32.382Z,48.00
2018-07-24T03:18:32.567Z,56.00
2018-07-24T03:19:32.757Z,60.00
2018-07-24T03:20:32.935Z,68.00
2018-07-24T03:21:33.120Z,76.00
2018-07-24T03:22:33.308Z,84.00
2018-07-24T03:23:33.501Z,92.00
2018-07-24T03:24:33.666Z,104.00
2018-07-24T03:25:33.857Z,116.00
2018-07-24T03:26:34.047Z,124.00
2018-07-24T03:27:34.233Z,140.00
2018-07-24T03:28:34.445Z,152.00
2018-07-24T03:29:34.637Z,164.00
2018-07-24T03:30:34.823Z,180.00
2018-07-24T03:31:35.023Z,196.00
2018-07-24T03:32:35.181Z,208.00
2018-07-24T03:33:35.363Z,232.00
2018-07-24T03:34:35.548Z,244.00
2018-07-24T03:35:35.734Z,264.00
2018-07-24T03:36:35.919Z,284.00
2018-07-24T03:37:36.107Z,308.00
2018-07-24T03:38:36.294Z,332.00
2018-07-24T03:39:36.505Z,352.00
2018-07-24T03:40:36.661Z,376.00
2018-07-24T03:41:36.858Z,400.00
2018-07-24T03:42:37.019Z,432.00
2018-07-24T03:43:37.203Z,460.00
2018-07-24T03:44:37.390Z,492.00
2018-07-24T03:45:37.581Z,524.00
2018-07-24T03:46:37.778Z,560.00
2018-07-24T03:47:37.942Z,592.00
2018-07-24T03:48:38.124Z,632.00
2018-07-24T03:51:21.017Z,736.00
2018-07-24T03:52:21.204Z,780.00
2018-07-24T03:53:21.924Z,828.00
2018-07-24T03:54:21.569Z,872.00
2018-07-24T03:55:21.756Z,924.00
2018-07-24T03:56:21.938Z,972.00
2018-07-24T03:57:22.127Z,1024.00
2018-07-24T03:58:22.310Z,1080.00
2018-07-24T03:59:22.497Z,1136.00
2018-07-24T04:00:22.682Z,1200.00
2018-07-24T04:01:22.868Z,1260.00
2018-07-24T04:02:23.068Z,1320.00
2018-07-24T04:03:23.238Z,1384.00
2018-07-24T04:04:23.425Z,1448.00
2018-07-24T04:05:23.615Z,1512.00
2018-07-24T04:06:23.789Z,1576.00
2018-07-24T04:07:23.968Z,1644.00
2018-07-24T04:08:24.155Z,1712.00
2018-07-24T04:09:24.344Z,1780.00
2018-07-24T04:10:24.538Z,1848.00
2018-07-24T04:11:24.721Z,1920.00
2018-07-24T04:12:24.904Z,2000.00
2018-07-24T04:13:25.091Z,2100.00
2018-07-24T04:14:25.277Z,2172.00
2018-07-24T04:15:25.464Z,2216.00
2018-07-24T04:16:25.653Z,2392.00
2018-07-24T04:17:25.839Z,2500.00
2018-07-24T04:18:26.024Z,2560.00
2018-07-24T04:19:26.212Z,2624.00
2018-07-24T04:20:26.387Z,2684.00
2018-07-24T04:21:26.583Z,2696.00
2018-07-24T04:22:26.771Z,2744.00
2018-07-24T04:23:26.963Z,2828.00
2018-07-24T04:24:27.148Z,2904.00
2018-07-24T04:25:27.331Z,2968.00
2018-07-24T04:26:27.510Z,3044.00
2018-07-24T04:27:27.701Z,3116.00
2018-07-24T04:28:27.887Z,3160.00
2018-07-24T04:29:28.073Z,3248.00
2018-07-24T04:30:28.261Z,3316.00
2018-07-24T04:31:28.450Z,3380.00
2018-07-24T04:32:28.635Z,3452.00
2018-07-24T04:33:28.822Z,3524.00
2018-07-24T04:34:29.007Z,3592.00
2018-07-24T04:35:29.196Z,3672.00
2018-07-24T04:36:29.381Z,3796.00
2018-07-24T04:37:29.567Z,3872.00
2018-07-24T04:38:29.755Z,3912.00
2018-07-24T04:39:29.941Z,3992.00
2018-07-24T04:40:30.127Z,4096.00
2018-07-24T04:41:30.311Z,4176.00
2018-07-24T04:42:30.499Z,4248.00
2018-07-24T04:43:30.687Z,4316.00
2018-07-24T04:44:30.872Z,4408.00
2018-07-24T04:45:31.054Z,4492.00
2018-07-24T04:46:31.245Z,4592.00
2018-07-24T04:47:31.431Z,4760.00
2018-07-24T04:48:31.679Z,5040.00
2018-07-24T04:49:31.807Z,5720.00
2018-07-24T04:50:31.992Z,6848.00
2018-07-24T04:51:32.174Z,8936.00
2018-07-24T04:52:32.358Z,14336.00
2018-07-24T04:53:32.545Z,23328.00
2018-07-24T04:54:32.731Z,32352.00
2018-07-24T04:55:32.918Z,38560.00
2018-07-24T04:56:33.104Z,38496.00
2018-07-24T04:57:33.296Z,37600.00
2018-07-24T04:58:33.479Z,38112.00
2018-07-24T04:59:33.665Z,37472.00
2018-07-24T05:00:33.853Z,35968.00
2018-07-24T05:01:34.042Z,35392.00
2018-07-24T05:02:34.283Z,35072.00
2018-07-24T05:03:34.416Z,34528.00
2018-07-24T05:04:34.609Z,36736.00
2018-07-24T05:05:34.800Z,38688.00
2018-07-24T05:06:34.986Z,39040.00
2018-07-24T05:07:35.185Z,40576.00
2018-07-24T05:08:35.367Z,41408.00
2018-07-24T05:09:35.595Z,43008.00
2018-07-24T05:10:35.840Z,43680.00
2018-07-24T05:11:35.952Z,45248.00
2018-07-24T05:12:36.136Z,46176.00
2018-07-24T05:13:36.328Z,47456.00
2018-07-24T05:14:36.518Z,48640.00
2018-07-24T05:15:36.707Z,49472.00
2018-07-24T05:16:36.923Z,50688.00
2018-07-24T05:17:37.100Z,50976.00
2018-07-24T05:18:37.290Z,52512.00
2018-07-24T05:19:37.483Z,53216.00
2018-07-24T05:20:37.677Z,54336.00
2018-07-24T05:21:37.871Z,55648.00
2018-07-24T05:22:38.067Z,56000.00
2018-07-24T05:23:38.284Z,56064.00
2018-07-24T05:24:38.452Z,57248.00
2018-07-24T05:25:38.653Z,57376.00
2018-07-24T05:26:38.854Z,57088.00
2018-07-24T05:27:39.030Z,58976.00
2018-07-24T05:28:39.224Z,60224.00
2018-07-24T05:29:39.420Z,60160.00
2018-07-24T05:30:39.611Z,60032.00
2018-07-24T05:31:39.811Z,62048.00
2018-07-24T05:32:40.010Z,61440.00
2018-07-24T05:33:40.207Z,61536.00
2018-07-24T05:34:40.399Z,60832.00
2018-07-24T05:35:40.601Z,60576.00
2018-07-24T05:36:40.803Z,60800.00
2018-07-24T05:37:40.992Z,62304.00
2018-07-24T05:38:41.218Z,64480.00
2018-07-24T05:39:41.386Z,64800.00
2018-07-24T05:40:41.582Z,65280.00
2018-07-24T05:41:41.784Z,66592.00
2018-07-24T05:42:41.981Z,68288.00
2018-07-24T05:43:42.180Z,69408.00
2018-07-24T05:44:42.377Z,69984.00
2018-07-24T05:45:42.577Z,68384.00
2018-07-24T05:46:42.783Z,67744.00
2018-07-24T05:47:42.976Z,68640.00
2018-07-24T05:48:43.249Z,69344.00
2018-07-24T05:49:43.372Z,68736.00
2018-07-24T05:50:43.569Z,71520.00
2018-07-24T05:51:43.772Z,75040.00
2018-07-24T05:52:43.972Z,78208.00
2018-07-24T05:53:44.175Z,80064.00
2018-07-24T05:54:44.374Z,82240.00
2018-07-24T05:55:44.567Z,82944.00
2018-07-24T05:56:44.763Z,83072.00
2018-07-24T05:57:44.964Z,84576.00
2018-07-24T05:58:45.163Z,83936.00
2018-07-24T05:59:45.365Z,83744.00
2018-07-24T06:00:45.565Z,81600.00
2018-07-24T06:01:45.775Z,81984.00
2018-07-24T06:02:45.966Z,83936.00
2018-07-24T06:03:46.167Z,84032.00
2018-07-24T06:04:46.367Z,85024.00
2018-07-24T06:05:46.570Z,85184.00
2018-07-24T06:06:46.764Z,85984.00
2018-07-24T06:07:46.973Z,88000.00
2018-07-24T06:08:48.039Z,90112.00
2018-07-24T06:09:47.363Z,90112.00
2018-07-24T06:10:47.567Z,89632.00
2018-07-24T06:11:47.766Z,87520.00
2018-07-24T06:12:47.966Z,85632.00
2018-07-24T06:13:48.173Z,83296.00
2018-07-24T06:14:48.371Z,82368.00
2018-07-24T06:15:48.579Z,85856.00
2018-07-24T06:16:48.822Z,88032.00
2018-07-24T06:17:48.978Z,88960.00
2018-07-24T06:18:49.181Z,89120.00
2018-07-24T06:19:49.387Z,87840.00
2018-07-24T06:20:49.579Z,88320.00
2018-07-24T06:21:49.843Z,89728.00
2018-07-24T06:22:49.980Z,89984.00
2018-07-24T06:23:50.176Z,89280.00
2018-07-24T06:24:50.387Z,88864.00
2018-07-24T06:25:50.587Z,89920.00
2018-07-24T06:26:50.788Z,90464.00
2018-07-24T06:27:50.986Z,89216.00
2018-07-24T06:28:51.191Z,89568.00
2018-07-24T06:29:51.395Z,90304.00
2018-07-24T06:30:51.597Z,91520.00
2018-07-24T06:31:51.796Z,90720.00
2018-07-24T06:32:51.994Z,89792.00
2018-07-24T06:33:52.199Z,90176.00
2018-07-24T06:34:52.416Z,89792.00
2018-07-24T06:35:52.604Z,84064.00
2018-07-24T06:36:52.804Z,75584.00
2018-07-24T06:37:53.007Z,70176.00
2018-07-24T06:38:53.208Z,66464.00
2018-07-24T06:39:53.412Z,70816.00
2018-07-24T06:40:53.612Z,74656.00
2018-07-24T06:41:53.814Z,78592.00
2018-07-24T06:42:54.017Z,79200.00
2018-07-24T06:43:54.208Z,79104.00
2018-07-24T06:44:54.423Z,78656.00
2018-07-24T06:45:54.620Z,78656.00
2018-07-24T06:46:54.812Z,81984.00
2018-07-24T06:47:55.017Z,83296.00
2018-07-24T06:48:55.216Z,85376.00
2018-07-24T06:49:55.418Z,84928.00
2018-07-24T06:50:55.622Z,84704.00
2018-07-24T06:51:55.865Z,78240.00
2018-07-24T06:52:56.019Z,77664.00
2018-07-24T06:53:56.207Z,80928.00
2018-07-24T06:54:57.019Z,83328.00
2018-07-24T06:55:56.558Z,86784.00
2018-07-24T06:56:56.750Z,89824.00
2018-07-24T06:57:56.950Z,92000.00
2018-07-24T06:58:57.157Z,95936.00
2018-07-24T06:59:57.359Z,93952.00
2018-07-24T07:00:57.565Z,92864.00
2018-07-24T07:01:57.784Z,92736.00
2018-07-24T07:02:57.964Z,91872.00
2018-07-24T07:03:58.165Z,91360.00
2018-07-24T07:04:58.388Z,88960.00
2018-07-24T07:05:58.553Z,91520.00
2018-07-24T07:06:58.753Z,90912.00
2018-07-24T07:07:58.954Z,90720.00
2018-07-24T07:08:59.159Z,89376.00
2018-07-24T07:09:59.359Z,87104.00
2018-07-24T07:10:59.554Z,84896.00
2018-07-24T07:11:59.741Z,85728.00
2018-07-24T07:12:59.983Z,88800.00
2018-07-24T07:14:00.159Z,92992.00
2018-07-24T07:15:00.364Z,93376.00
2018-07-24T07:16:00.561Z,91904.00
2018-07-24T07:17:00.767Z,91360.00
2018-07-24T07:18:00.966Z,91104.00
2018-07-24T07:19:01.164Z,91808.00
2018-07-24T07:20:01.369Z,93568.00
2018-07-24T07:21:01.565Z,93312.00
2018-07-24T07:22:01.772Z,92704.00
2018-07-24T07:23:01.967Z,87168.00
2018-07-24T07:24:02.167Z,84800.00
2018-07-24T07:25:02.451Z,85440.00
2018-07-24T07:26:02.605Z,84992.00
2018-07-24T07:27:02.769Z,85856.00
2018-07-24T07:28:02.974Z,83360.00
2018-07-24T07:29:03.250Z,84192.00
2018-07-24T07:30:03.379Z,88416.00
2018-07-24T07:31:03.582Z,90560.00
2018-07-24T07:32:03.786Z,91488.00
2018-07-24T07:33:03.987Z,90528.00
2018-07-24T07:34:04.190Z,90496.00
2018-07-24T07:35:04.387Z,92896.00
2018-07-24T07:36:04.587Z,95648.00
2018-07-24T07:37:04.781Z,92992.00
2018-07-24T07:38:04.985Z,88352.00
2018-07-24T07:39:05.232Z,86688.00
2018-07-24T07:40:05.382Z,85760.00
2018-07-24T07:41:05.583Z,85696.00
2018-07-24T07:42:05.780Z,88512.00
2018-07-24T07:43:05.988Z,92320.00
2018-07-24T07:44:06.201Z,95488.00
2018-07-24T07:45:06.394Z,93760.00
2018-07-24T07:46:06.591Z,93440.00
2018-07-24T07:47:06.795Z,94400.00
2018-07-24T07:48:06.994Z,92832.00
2018-07-24T07:49:07.201Z,91008.00
2018-07-24T07:50:07.403Z,89568.00
2018-07-24T07:51:07.605Z,85664.00
2018-07-24T07:52:07.808Z,76768.00
2018-07-24T07:53:08.014Z,71488.00
2018-07-24T07:54:08.216Z,72128.00
2018-07-24T07:55:08.417Z,77376.00
2018-07-24T07:56:08.617Z,77696.00
2018-07-24T07:57:08.822Z,79520.00
2018-07-24T07:58:09.022Z,80736.00
2018-07-24T07:59:09.226Z,88000.00
2018-07-24T08:00:09.419Z,92160.00
2018-07-24T08:01:09.628Z,92128.00
2018-07-24T08:02:09.827Z,92896.00
2018-07-24T08:03:10.035Z,94016.00
2018-07-24T08:04:10.293Z,94272.00
2018-07-24T08:05:10.436Z,93280.00
2018-07-24T08:06:10.630Z,88608.00
2018-07-24T08:07:10.827Z,84608.00
2018-07-24T08:08:11.025Z,80256.00
2018-07-24T08:09:11.220Z,80096.00
2018-07-24T08:10:11.418Z,80512.00
2018-07-24T08:11:11.607Z,75776.00
2018-07-24T08:12:11.857Z,58816.00
2018-07-24T08:13:12.012Z,36352.00
2018-07-24T08:14:12.224Z,24224.00
2018-07-24T08:15:12.413Z,22656.00
2018-07-24T08:16:12.621Z,22752.00
2018-07-24T08:17:12.825Z,22944.00
2018-07-24T08:18:13.013Z,24192.00
2018-07-24T08:19:13.222Z,23680.00
2018-07-24T08:20:13.441Z,22336.00
2018-07-24T08:21:13.636Z,21728.00
2018-07-24T08:22:13.894Z,21216.00
2018-07-24T08:23:14.039Z,20256.00
2018-07-24T08:24:14.247Z,18944.00
2018-07-24T08:25:14.450Z,18144.00
2018-07-24T08:26:14.652Z,18016.00
2018-07-24T08:27:14.853Z,18016.00
2018-07-24T08:28:15.083Z,17760.00
2018-07-24T08:29:15.259Z,17312.00
2018-07-24T08:30:15.453Z,17088.00
2018-07-24T08:31:15.652Z,16896.00
2018-07-24T08:32:15.847Z,16544.00
2018-07-24T08:33:16.052Z,16832.00
2018-07-24T08:34:16.252Z,16608.00
2018-07-24T08:35:16.452Z,16768.00
2018-07-24T08:36:16.660Z,17184.00
2018-07-24T08:37:16.854Z,17344.00
2018-07-24T08:38:17.058Z,17408.00
2018-07-24T08:39:17.263Z,17536.00
2018-07-24T08:40:17.458Z,17632.00
2018-07-24T08:41:17.658Z,16800.00
2018-07-24T08:42:17.850Z,16928.00
2018-07-24T08:43:18.049Z,15920.00
2018-07-24T08:44:18.251Z,15212.00
2018-07-24T08:45:18.453Z,12184.00
2018-07-24T08:46:18.649Z,12076.00
2018-07-24T08:47:18.844Z,11736.00
2018-07-24T08:48:19.081Z,9928.00
2018-07-24T08:49:19.253Z,8912.00
2018-07-24T08:50:19.449Z,8776.00
2018-07-24T08:51:19.650Z,8540.00
2018-07-24T08:52:19.854Z,11372.00
2018-07-24T08:53:20.262Z,8344.00
2018-07-24T08:54:20.450Z,8644.00
2018-07-24T08:55:20.741Z,8640.00
2018-07-24T08:56:20.650Z,10132.00
2018-07-24T08:57:20.851Z,7756.00
2018-07-24T08:58:21.050Z,7520.00
2018-07-24T08:59:21.246Z,7708.00
2018-07-24T09:00:21.443Z,9560.00
2018-07-24T09:01:21.640Z,10864.00
2018-07-24T09:02:21.864Z,13400.00
2018-07-24T09:03:22.121Z,11404.00
2018-07-24T09:04:22.260Z,14912.00
2018-07-24T09:05:22.461Z,15264.00
2018-07-24T09:06:22.659Z,10860.00
2018-07-24T09:07:22.861Z,8400.00
2018-07-24T09:08:23.065Z,9352.00
2018-07-24T09:09:23.265Z,15040.00
2018-07-24T09:10:23.464Z,22848.00
2018-07-24T09:11:23.656Z,15968.00
2018-07-24T09:12:23.863Z,9772.00
2018-07-24T09:13:24.063Z,7372.00
2018-07-24T09:14:24.268Z,6620.00
2018-07-24T09:15:24.482Z,8044.00
2018-07-24T09:16:24.667Z,6516.00
2018-07-24T09:17:24.864Z,11280.00
2018-07-24T09:18:25.073Z,9572.00
2018-07-24T09:19:25.289Z,6972.00
2018-07-24T09:20:25.533Z,17952.00
2018-07-24T09:21:25.734Z,16320.00
2018-07-24T09:22:25.933Z,13524.00
2018-07-24T09:23:26.135Z,12092.00
2018-07-24T09:24:26.336Z,9488.00
2018-07-24T09:25:26.536Z,9968.00
2018-07-24T09:26:26.737Z,9136.00
2018-07-24T09:27:26.953Z,9656.00
2018-07-24T09:28:27.144Z,7848.00
2018-07-24T09:29:27.348Z,9844.00
2018-07-24T09:30:27.546Z,7440.00
2018-07-24T09:31:27.747Z,7948.00
2018-07-24T09:32:27.949Z,8476.00
2018-07-24T09:33:28.150Z,6652.00
2018-07-24T09:34:28.350Z,7060.00
2018-07-24T09:35:28.536Z,6316.00
2018-07-24T09:36:28.734Z,7360.00
2018-07-24T09:37:28.929Z,7576.00
2018-07-24T09:38:29.119Z,6588.00
2018-07-24T09:39:29.315Z,6008.00
2018-07-24T09:40:29.523Z,5752.00
2018-07-24T09:41:29.708Z,5828.00
2018-07-24T09:42:29.907Z,5664.00
2018-07-24T09:43:30.100Z,5580.00
2018-07-24T09:44:30.304Z,5912.00
2018-07-24T09:45:30.498Z,5504.00
2018-07-24T09:46:30.698Z,6792.00
2018-07-24T09:47:30.901Z,5420.00
2018-07-24T09:48:31.091Z,5296.00
2018-07-24T09:49:31.292Z,5364.00
2018-07-24T09:50:31.501Z,5348.00
2018-07-24T09:51:31.689Z,5376.00
2018-07-24T09:52:31.889Z,5464.00
2018-07-24T09:53:32.082Z,5192.00
2018-07-24T09:54:32.284Z,5148.00
2018-07-24T09:55:32.484Z,5384.00
2018-07-24T09:56:32.729Z,5156.00
2018-07-24T09:57:32.881Z,5124.00
2018-07-24T09:58:33.079Z,5072.00
2018-07-24T09:59:33.275Z,5148.00
2018-07-24T10:00:33.475Z,5104.00
2018-07-24T10:01:33.669Z,5080.00
2018-07-24T10:02:33.871Z,5176.00
2018-07-24T10:03:34.065Z,5176.00
2018-07-24T10:04:34.263Z,5036.00
2018-07-24T10:05:34.462Z,4916.00
2018-07-24T10:06:34.662Z,4904.00
2018-07-24T10:07:34.859Z,4904.00
2018-07-24T10:08:35.047Z,4864.00
2018-07-24T10:09:35.273Z,4776.00
2018-07-24T10:10:35.477Z,4800.00
2018-07-24T10:11:35.664Z,4772.00
2018-07-24T10:12:35.887Z,4772.00
2018-07-24T10:13:36.046Z,4720.00
2018-07-24T10:14:36.242Z,4748.00
2018-07-24T10:15:36.457Z,4720.00
2018-07-24T10:16:36.648Z,4700.00
2018-07-24T10:17:36.820Z,4696.00
2018-07-24T10:18:37.036Z,4684.00
2018-07-24T10:19:37.237Z,4724.00
2018-07-24T10:20:37.415Z,4728.00
2018-07-24T10:21:37.614Z,4692.00
2018-07-24T10:22:37.839Z,4700.00
2018-07-24T10:23:38.010Z,4680.00
2018-07-24T10:24:38.187Z,4656.00
2018-07-24T10:25:38.403Z,4652.00
2018-07-24T10:26:38.606Z,4752.00
2018-07-24T10:27:38.802Z,4592.00
2018-07-24T10:28:38.999Z,4516.00
2018-07-24T10:29:39.217Z,4512.00
2018-07-24T10:30:39.425Z,4452.00
2018-07-24T10:31:39.591Z,4476.00
2018-07-24T10:32:39.793Z,4460.00
2018-07-24T10:33:39.984Z,4428.00
2018-07-24T10:34:40.186Z,4392.00
2018-07-24T10:35:40.444Z,4320.00
2018-07-24T10:36:40.518Z,4308.00
2018-07-24T10:37:40.717Z,4284.00
2018-07-24T10:38:40.902Z,4288.00
2018-07-24T10:39:41.115Z,4256.00
2018-07-24T10:40:41.301Z,4236.00
2018-07-24T10:41:41.488Z,4204.00
2018-07-24T10:42:41.688Z,4196.00
2018-07-24T10:43:41.902Z,4192.00
2018-07-24T10:44:42.076Z,4200.00
2018-07-24T10:45:42.272Z,4188.00
2018-07-24T10:46:42.469Z,4232.00
2018-07-24T10:47:42.669Z,4164.00
2018-07-24T10:48:42.868Z,4428.00
2018-07-24T10:49:43.065Z,4252.00
2018-07-24T10:50:43.260Z,4196.00
2018-07-24T10:51:43.471Z,4168.00
2018-07-24T10:52:43.685Z,4072.00
2018-07-24T10:53:43.849Z,4240.00
2018-07-24T10:54:44.041Z,4176.00
2018-07-24T10:55:44.241Z,3992.00
2018-07-24T10:56:44.439Z,3980.00
2018-07-24T10:57:44.622Z,3952.00
2018-07-24T10:58:44.808Z,4000.00
2018-07-24T10:59:45.001Z,3968.00
2018-07-24T11:00:45.201Z,3960.00
2018-07-24T11:01:45.399Z,3864.00
2018-07-24T11:02:45.602Z,3840.00
2018-07-24T11:03:45.795Z,3812.00
2018-07-24T11:04:46.001Z,3804.00
2018-07-24T11:05:46.179Z,3792.00
2018-07-24T11:06:46.374Z,3780.00
2018-07-24T11:07:46.575Z,3756.00
2018-07-24T11:08:46.758Z,3720.00
2018-07-24T11:09:46.963Z,3716.00
2018-07-24T11:10:47.159Z,3676.00
2018-07-24T11:11:47.350Z,3672.00
2018-07-24T11:12:47.548Z,3640.00
2018-07-24T11:13:47.745Z,3636.00
2018-07-24T11:14:47.955Z,3572.00
2018-07-24T11:15:48.124Z,3544.00
2018-07-24T11:16:48.335Z,3516.00
2018-07-24T11:17:48.545Z,3528.00
2018-07-24T11:18:48.721Z,3516.00
2018-07-24T11:19:48.907Z,3480.00
2018-07-24T11:20:49.096Z,3472.00
2018-07-24T11:21:49.380Z,3444.00
2018-07-24T11:22:49.659Z,3444.00
2018-07-24T11:23:49.707Z,3508.00
2018-07-24T11:24:49.903Z,3484.00
2018-07-24T11:25:50.097Z,3416.00
2018-07-24T11:26:50.291Z,3388.00
2018-07-24T11:27:50.495Z,3376.00
2018-07-24T11:28:50.706Z,3360.00
2018-07-24T11:29:50.898Z,3352.00
2018-07-24T11:30:51.119Z,3364.00
2018-07-24T11:31:51.314Z,3368.00
2018-07-24T11:32:51.553Z,3320.00
2018-07-24T11:33:51.708Z,3328.00
2018-07-24T11:34:51.896Z,3304.00
2018-07-24T11:35:52.133Z,3288.00
2018-07-24T11:36:52.278Z,3276.00
2018-07-24T11:37:52.491Z,3324.00
2018-07-24T11:38:52.654Z,3276.00
2018-07-24T11:39:52.841Z,3284.00
2018-07-24T11:40:53.038Z,3292.00
2018-07-24T11:41:53.233Z,3276.00
2018-07-24T11:42:53.428Z,3272.00
2018-07-24T11:43:53.678Z,3240.00
2018-07-24T11:44:53.818Z,3216.00
2018-07-24T11:45:54.037Z,3200.00
2018-07-24T11:46:54.202Z,3196.00
2018-07-24T11:47:54.392Z,3196.00
2018-07-24T11:48:54.578Z,3164.00
2018-07-24T11:49:54.787Z,3164.00
2018-07-24T11:50:54.981Z,3148.00
2018-07-24T11:51:55.220Z,3144.00
2018-07-24T11:52:55.401Z,3196.00
2018-07-24T11:53:55.590Z,3124.00
2018-07-24T11:54:55.806Z,3136.00
2018-07-24T11:55:56.006Z,3212.00
2018-07-24T11:56:56.200Z,3120.00
2018-07-24T11:57:56.406Z,3128.00
2018-07-24T11:58:56.579Z,3116.00
2018-07-24T11:59:56.780Z,3108.00
2018-07-24T12:00:56.977Z,3112.00
2018-07-24T12:01:57.170Z,3104.00
2018-07-24T12:02:57.360Z,3096.00
2018-07-24T12:03:57.553Z,3076.00
2018-07-24T12:04:57.753Z,3088.00
2018-07-24T12:05:58.008Z,3324.00
2018-07-24T12:06:58.173Z,3052.00
2018-07-24T12:07:58.397Z,3036.00
2018-07-24T12:08:58.556Z,3040.00
2018-07-24T12:09:58.775Z,3036.00
2018-07-24T12:10:58.967Z,3012.00
2018-07-24T12:11:59.152Z,3000.00
2018-07-24T12:12:59.371Z,3012.00
2018-07-24T12:13:59.556Z,2984.00
2018-07-24T12:14:59.777Z,3040.00
2018-07-24T12:15:59.973Z,2984.00
2018-07-24T12:17:00.162Z,2984.00
2018-07-24T12:18:00.357Z,2964.00
2018-07-24T12:19:00.567Z,2968.00
2018-07-24T12:20:00.754Z,2972.00
2018-07-24T12:21:00.943Z,2968.00
2018-07-24T12:22:01.149Z,2940.00